KSDY

Sidney-Richland Regional Airport

Sidney, Montana, USA
METAR KSDY 211356Z AUTO 19009KT 10SM CLR 13/06 A2996 RMK AO2 SLP146 T01330056
Observed Flight Rules
May-21 @ 13:56 UTC (50 minutes ago) Visual Flight Rules
Wind Visibility Clouds
190° at 9 knots 10 miles
  • Clear skies
Temperatures Readings
Current 13°C / 55°F
Dewpoint 6°C / 43°F
Humidity 63%
Altimeter 29.96" Hg
Pressure 1014.6 hPa
Elevation 605
METAR KSDY 211356Z AUTO 19009KT 10SM CLR 13/06 A2996 RMK AO2 SLP146 T01330056
Observed Flight Rules
May-21 @ 13:56 UTC
(50 minutes ago)
VFR
Wind Visibility
190° at 9 knots 10 miles
Clouds
  • Clear skies
Temperature Dewpoint
13°C / 55°F 6°C / 43°F
Humidity Altimeter Pressure
63% 29.96" Hg 1014.6 hPa